Forseti — V2PV4 — position and weather

sailwx.info

Track history (hours):
 
Tides and Currents Weather Stations Pressure Air Temp Water Temp Dewpoint Dewpoint Depression Visibility Wind Speed Wind Dir Waves Ship Positions

Forseti

Last reported at 2016-Dec-06 09:32 UTC. Time now 2016-Dec-06 10:20 UTC.
Position N 50°50' W 000°13'.

Length 85 m; draft 5.5 m.

Type: Cargo ship. MMSI: 304010297.

Date/timePositionNaut miles runAvg speedWind from/ knotsBaromVisibWave heightAir tempDewpointWater temp
2016-Dec-06 09:32N 50°50' W 000°13'0 0.0
2016-Dec-06 08:29N 50°50' W 000°13'0 0.0
2016-Dec-06 07:29N 50°50' W 000°13'0 0.0
2016-Dec-06 05:23N 50°50' W 000°13'0 0.0
2016-Dec-06 04:26N 50°50' W 000°13'0 0.0
2016-Dec-06 03:29N 50°50' W 000°13'0 0.0
2016-Dec-06 02:32N 50°50' W 000°13'0 0.0
2016-Dec-06 01:29N 50°50' W 000°13'0 0.0
2016-Dec-06 00:29N 50°50' W 000°13'0 0.0
2016-Dec-05 23:29N 50°50' W 000°13'0 0.0
2016-Dec-05 22:29N 50°50' W 000°13'0 0.0
2016-Dec-05 21:26N 50°50' W 000°13'0 0.0
2016-Dec-05 20:32N 50°50' W 000°13'0 0.0
2016-Dec-05 19:29N 50°50' W 000°13'0 0.0
2016-Dec-05 18:32N 50°50' W 000°13'0 0.0
2016-Dec-05 17:29N 50°50' W 000°13'0 0.0
2016-Dec-05 16:29N 50°50' W 000°13'0 0.0
2016-Dec-05 15:23N 50°50' W 000°13'0 0.0
2016-Dec-05 14:26N 50°50' W 000°13'0 0.0
2016-Dec-05 13:29N 50°50' W 000°13'0 0.0
2016-Dec-05 12:32N 50°50' W 000°13'0 0.0
2016-Dec-05 11:32N 50°50' W 000°13'0 0.0
2016-Dec-05 10:29N 50°50' W 000°13'0 0.0
2016-Dec-05 09:29N 50°50' W 000°13'0 0.0
2016-Dec-05 08:32N 50°50' W 000°13'0 0.0
2016-Dec-05 07:31N 50°50' W 000°13'0 0.0
2016-Dec-05 06:31N 50°50' W 000°13'0 0.0
2016-Dec-05 05:31N 50°50' W 000°13'0 0.0
2016-Dec-05 04:31N 50°50' W 000°13'0 0.0
2016-Dec-05 03:31N 50°50' W 000°13'0 0.0
2016-Dec-05 02:31N 50°50' W 000°13'0 0.0
2016-Dec-05 01:31N 50°50' W 000°13'0 0.0
2016-Dec-05 00:31N 50°50' W 000°13'0 0.0
2016-Dec-04 23:31N 50°50' W 000°13'0 0.0
2016-Dec-04 22:33N 50°50' W 000°13'0 0.0
2016-Dec-04 21:31N 50°50' W 000°13'0 0.0
2016-Dec-04 20:31N 50°50' W 000°13'0 0.0
2016-Dec-04 19:31N 50°50' W 000°13'0 0.0
2016-Dec-04 18:31N 50°50' W 000°13'0 0.0
2016-Dec-04 17:31N 50°50' W 000°13'0 0.0
2016-Dec-04 16:31N 50°50' W 000°13'0 0.0
2016-Dec-04 15:31N 50°50' W 000°13'0 0.0
2016-Dec-04 14:31N 50°50' W 000°13'0 0.1
2016-Dec-04 13:33N 50°50' W 000°12'2 1.6
2016-Dec-04 12:33N 50°49' W 000°15'1 1.4
2016-Dec-04 11:32N 50°47' W 000°14'0 0.1
2016-Dec-04 10:32N 50°48' W 000°14'0 0.0
2016-Dec-04 09:32N 50°48' W 000°14'4 3.7
2016-Dec-04 08:33N 50°46' W 000°09'1110.7
2016-Dec-04 07:33N 50°43' E 000°07'4110.2
2016-Dec-04 03:31N 50°55' E 001°09'9 9.1
2016-Dec-04 02:33N 51°01' E 001°20'9 9.1
2016-Dec-04 01:33N 51°06' E 001°31'1010.2
2016-Dec-04 00:33N 51°13' E 001°44'1212.0
2016-Dec-03 23:33N 51°24' E 001°52'1312.6
2016-Dec-03 22:33N 51°35' E 002°02'475 9.8
2016-Dec-01 22:20N 57°47' E 010°32'5 6.5
2016-Dec-01 21:33N 57°47' E 010°41'6 6.3
2016-Dec-01 20:33N 57°41' E 010°46'6 5.9
2016-Dec-01 19:31N 57°38' E 010°36'0 0.0
2016-Dec-01 18:22N 57°38' E 010°36'0 0.0
2016-Dec-01 17:31N 57°38' E 010°36'0 0.1
2016-Dec-01 16:25N 57°38' E 010°36'0 0.0
2016-Dec-01 15:28N 57°38' E 010°36'0 0.0
2016-Dec-01 13:28N 57°38' E 010°36'0 0.0
2016-Dec-01 12:25N 57°38' E 010°36'0 0.0
2016-Dec-01 11:28N 57°38' E 010°36'0 0.0
2016-Dec-01 10:31N 57°38' E 010°36'0 0.0
2016-Dec-01 09:31N 57°38' E 010°36'0 0.1
2016-Dec-01 08:32N 57°38' E 010°36'8 8.4
2016-Dec-01 07:33N 57°31' E 010°44'1110.4
2016-Dec-01 06:32N 57°20' E 010°44'82 9.0
2016-Nov-30 21:23N 56°14' E 012°14'8 9.7
2016-Nov-30 20:33N 56°10' E 012°26'9 9.1
2016-Nov-30 19:33N 56°04' E 012°38'8 8.5
2016-Nov-30 18:33N 55°56' E 012°44'9 9.3
2016-Nov-30 17:33N 55°47' E 012°42'9 9.3
2016-Nov-30 16:33N 55°38' E 012°42'9 8.9
2016-Nov-30 15:33N 55°29' E 012°42'9 9.4
2016-Nov-30 14:33N 55°19' E 012°42'9 8.6
2016-Nov-30 13:33N 55°16' E 012°56'9 9.1
2016-Nov-30 12:33N 55°15' E 013°12'12 8.8
2016-Nov-30 11:13N 55°15' E 013°32'5 8.4
2016-Nov-30 10:33N 55°14' E 013°42'8 8.2
2016-Nov-30 09:33N 55°14' E 013°56'8 8.0
2016-Nov-30 08:33N 55°14' E 014°10'7 7.1
2016-Nov-30 07:33N 55°17' E 014°21'7 6.9
2016-Nov-30 06:33N 55°23' E 014°29'9 8.7
2016-Nov-30 05:33N 55°29' E 014°40'8 8.4
2016-Nov-30 04:33N 55°33' E 014°53'7 7.4
2016-Nov-30 03:34N 55°36' E 015°04'7 7.0
2016-Nov-30 02:33N 55°40' E 015°15'  
Track history (hours):
 
Tides and Currents Weather Stations Pressure Air Temp Water Temp Dewpoint Dewpoint Depression Visibility Wind Speed Wind Dir Waves Ship Positions

Forseti

Last reported at 2016-Dec-06 09:32 UTC. Time now 2016-Dec-06 10:20 UTC.
Position N 50°50' W 000°13'.

Length 85 m; draft 5.5 m.

Type: Cargo ship. MMSI: 304010297.

Date/timePositionNaut miles runAvg speedWind from/ knotsBaromVisibWave heightAir tempDewpointWater temp
2016-Dec-06 09:32N 50°50' W 000°13'0 0.0
2016-Dec-06 08:29N 50°50' W 000°13'0 0.0
2016-Dec-06 07:29N 50°50' W 000°13'0 0.0
2016-Dec-06 05:23N 50°50' W 000°13'0 0.0
2016-Dec-06 04:26N 50°50' W 000°13'0 0.0
2016-Dec-06 03:29N 50°50' W 000°13'0 0.0
2016-Dec-06 02:32N 50°50' W 000°13'0 0.0
2016-Dec-06 01:29N 50°50' W 000°13'0 0.0
2016-Dec-06 00:29N 50°50' W 000°13'0 0.0
2016-Dec-05 23:29N 50°50' W 000°13'0 0.0
2016-Dec-05 22:29N 50°50' W 000°13'0 0.0
2016-Dec-05 21:26N 50°50' W 000°13'0 0.0
2016-Dec-05 20:32N 50°50' W 000°13'0 0.0
2016-Dec-05 19:29N 50°50' W 000°13'0 0.0
2016-Dec-05 18:32N 50°50' W 000°13'0 0.0
2016-Dec-05 17:29N 50°50' W 000°13'0 0.0
2016-Dec-05 16:29N 50°50' W 000°13'0 0.0
2016-Dec-05 15:23N 50°50' W 000°13'0 0.0
2016-Dec-05 14:26N 50°50' W 000°13'0 0.0
2016-Dec-05 13:29N 50°50' W 000°13'0 0.0
2016-Dec-05 12:32N 50°50' W 000°13'0 0.0
2016-Dec-05 11:32N 50°50' W 000°13'0 0.0
2016-Dec-05 10:29N 50°50' W 000°13'0 0.0
2016-Dec-05 09:29N 50°50' W 000°13'0 0.0
2016-Dec-05 08:32N 50°50' W 000°13'0 0.0
2016-Dec-05 07:31N 50°50' W 000°13'0 0.0
2016-Dec-05 06:31N 50°50' W 000°13'0 0.0
2016-Dec-05 05:31N 50°50' W 000°13'0 0.0
2016-Dec-05 04:31N 50°50' W 000°13'0 0.0
2016-Dec-05 03:31N 50°50' W 000°13'0 0.0
2016-Dec-05 02:31N 50°50' W 000°13'0 0.0
2016-Dec-05 01:31N 50°50' W 000°13'0 0.0
2016-Dec-05 00:31N 50°50' W 000°13'0 0.0
2016-Dec-04 23:31N 50°50' W 000°13'0 0.0
2016-Dec-04 22:33N 50°50' W 000°13'0 0.0
2016-Dec-04 21:31N 50°50' W 000°13'0 0.0
2016-Dec-04 20:31N 50°50' W 000°13'0 0.0
2016-Dec-04 19:31N 50°50' W 000°13'0 0.0
2016-Dec-04 18:31N 50°50' W 000°13'0 0.0
2016-Dec-04 17:31N 50°50' W 000°13'0 0.0
2016-Dec-04 16:31N 50°50' W 000°13'0 0.0
2016-Dec-04 15:31N 50°50' W 000°13'0 0.0
2016-Dec-04 14:31N 50°50' W 000°13'0 0.1
2016-Dec-04 13:33N 50°50' W 000°12'2 1.6
2016-Dec-04 12:33N 50°49' W 000°15'1 1.4
2016-Dec-04 11:32N 50°47' W 000°14'0 0.1
2016-Dec-04 10:32N 50°48' W 000°14'0 0.0
2016-Dec-04 09:32N 50°48' W 000°14'4 3.7
2016-Dec-04 08:33N 50°46' W 000°09'1110.7
2016-Dec-04 07:33N 50°43' E 000°07'4110.2
2016-Dec-04 03:31N 50°55' E 001°09'9 9.1
2016-Dec-04 02:33N 51°01' E 001°20'9 9.1
2016-Dec-04 01:33N 51°06' E 001°31'1010.2
2016-Dec-04 00:33N 51°13' E 001°44'1212.0
2016-Dec-03 23:33N 51°24' E 001°52'1312.6
2016-Dec-03 22:33N 51°35' E 002°02'475 9.8
2016-Dec-01 22:20N 57°47' E 010°32'5 6.5
2016-Dec-01 21:33N 57°47' E 010°41'6 6.3
2016-Dec-01 20:33N 57°41' E 010°46'6 5.9
2016-Dec-01 19:31N 57°38' E 010°36'0 0.0
2016-Dec-01 18:22N 57°38' E 010°36'0 0.0
2016-Dec-01 17:31N 57°38' E 010°36'0 0.1
2016-Dec-01 16:25N 57°38' E 010°36'0 0.0
2016-Dec-01 15:28N 57°38' E 010°36'0 0.0
2016-Dec-01 13:28N 57°38' E 010°36'0 0.0
2016-Dec-01 12:25N 57°38' E 010°36'0 0.0
2016-Dec-01 11:28N 57°38' E 010°36'0 0.0
2016-Dec-01 10:31N 57°38' E 010°36'0 0.0
2016-Dec-01 09:31N 57°38' E 010°36'0 0.1
2016-Dec-01 08:32N 57°38' E 010°36'8 8.4
2016-Dec-01 07:33N 57°31' E 010°44'1110.4
2016-Dec-01 06:32N 57°20' E 010°44'82 9.0
2016-Nov-30 21:23N 56°14' E 012°14'8 9.7
2016-Nov-30 20:33N 56°10' E 012°26'9 9.1
2016-Nov-30 19:33N 56°04' E 012°38'8 8.5
2016-Nov-30 18:33N 55°56' E 012°44'9 9.3
2016-Nov-30 17:33N 55°47' E 012°42'9 9.3
2016-Nov-30 16:33N 55°38' E 012°42'9 8.9
2016-Nov-30 15:33N 55°29' E 012°42'9 9.4
2016-Nov-30 14:33N 55°19' E 012°42'9 8.6
2016-Nov-30 13:33N 55°16' E 012°56'9 9.1
2016-Nov-30 12:33N 55°15' E 013°12'12 8.8
2016-Nov-30 11:13N 55°15' E 013°32'5 8.4
2016-Nov-30 10:33N 55°14' E 013°42'8 8.2
2016-Nov-30 09:33N 55°14' E 013°56'8 8.0
2016-Nov-30 08:33N 55°14' E 014°10'7 7.1
2016-Nov-30 07:33N 55°17' E 014°21'7 6.9
2016-Nov-30 06:33N 55°23' E 014°29'9 8.7
2016-Nov-30 05:33N 55°29' E 014°40'8 8.4
2016-Nov-30 04:33N 55°33' E 014°53'7 7.4
2016-Nov-30 03:34N 55°36' E 015°04'7 7.0
2016-Nov-30 02:33N 55°40' E 015°15'  

Dump ship's entire track history